createdAt,value
2023-04-28T00:02:27.830Z,0.60
2023-04-28T00:04:55.749Z,0.30
2023-04-28T00:07:23.588Z,0.75
2023-04-28T00:09:51.649Z,0.70
2023-04-28T00:12:19.574Z,0.95
2023-04-28T00:14:47.387Z,0.40
2023-04-28T00:17:16.492Z,0.60
2023-04-28T00:19:45.107Z,0.63
2023-04-28T00:22:12.956Z,0.75
2023-04-28T00:24:41.854Z,0.20
2023-04-28T00:27:09.661Z,0.20
2023-04-28T00:29:38.402Z,0.52
2023-04-28T00:32:06.318Z,0.35
2023-04-28T00:34:37.333Z,0.15
2023-04-28T00:37:05.556Z,0.60
2023-04-28T00:39:33.393Z,0.52
2023-04-28T00:42:02.099Z,2.30
2023-04-28T00:44:29.900Z,0.32
2023-04-28T00:46:58.337Z,0.50
2023-04-28T00:49:26.484Z,0.43
2023-04-28T00:51:55.625Z,1.00
2023-04-28T00:54:23.486Z,1.02
2023-04-28T00:56:51.823Z,0.57
2023-04-28T00:59:19.599Z,0.60
2023-04-28T01:01:47.526Z,0.57
2023-04-28T01:04:15.745Z,0.63
2023-04-28T01:06:44.909Z,0.70
2023-04-28T01:09:14.089Z,0.60
2023-04-28T01:11:41.894Z,0.50
2023-04-28T01:14:09.705Z,0.50
2023-04-28T01:16:39.222Z,1.05
2023-04-28T01:19:09.121Z,0.20
2023-04-28T01:21:36.874Z,0.43
2023-04-28T01:24:07.327Z,0.85
2023-04-28T01:26:35.080Z,0.30
2023-04-28T01:29:02.874Z,0.28
2023-04-28T01:31:31.716Z,0.47
2023-04-28T01:33:59.615Z,0.93
2023-04-28T01:36:28.524Z,0.32
2023-04-28T01:38:56.495Z,1.00
2023-04-28T01:41:25.685Z,1.10
2023-04-28T01:43:53.402Z,0.50
2023-04-28T01:46:21.217Z,0.60
2023-04-28T01:48:48.994Z,0.35
2023-04-28T01:51:16.801Z,0.38
2023-04-28T01:53:44.651Z,0.52
2023-04-28T01:56:12.528Z,0.50
2023-04-28T01:58:41.622Z,1.15
2023-04-28T02:01:09.465Z,1.23
2023-04-28T02:03:37.401Z,0.40
2023-04-28T02:06:06.205Z,1.20
2023-04-28T02:08:33.955Z,0.35
2023-04-28T02:11:01.808Z,0.20
2023-04-28T02:13:29.547Z,0.30
2023-04-28T02:16:01.552Z,0.65
2023-04-28T02:18:29.425Z,0.20
2023-04-28T02:20:57.265Z,0.45
2023-04-28T02:23:24.995Z,0.47
2023-04-28T02:26:01.881Z,1.33
2023-04-28T02:28:29.615Z,0.80
2023-04-28T02:31:06.432Z,0.22
2023-04-28T02:33:34.447Z,3.55
2023-04-28T02:36:02.568Z,3.88
2023-04-28T02:38:30.674Z,0.50
2023-04-28T02:40:59.908Z,1.58
2023-04-28T02:43:27.974Z,24.35
2023-04-28T02:45:56.458Z,98.75
2023-04-28T02:48:25.899Z,174.48
2023-04-28T02:50:53.794Z,231.75
2023-04-28T02:53:21.874Z,210.82
2023-04-28T02:55:50.090Z,198.52
2023-04-28T02:58:18.551Z,195.60
2023-04-28T03:00:46.606Z,180.85
2023-04-28T03:03:14.737Z,175.60
2023-04-28T03:05:44.103Z,205.38
2023-04-28T03:08:12.111Z,333.08
2023-04-28T03:10:39.898Z,389.48
2023-04-28T03:13:07.721Z,383.17
2023-04-28T03:15:35.736Z,346.55
2023-04-28T03:18:03.653Z,377.48
2023-04-28T03:20:31.611Z,472.95
2023-04-28T03:23:01.999Z,555.08
2023-04-28T03:25:29.805Z,576.55
2023-04-28T03:27:57.580Z,535.72
2023-04-28T03:30:25.488Z,503.15
2023-04-28T03:32:53.336Z,488.48
2023-04-28T03:35:21.610Z,587.90
2023-04-28T03:37:49.624Z,640.88
2023-04-28T03:40:19.160Z,639.78
2023-04-28T03:42:46.961Z,657.38
2023-04-28T03:45:14.774Z,627.08
2023-04-28T03:47:42.560Z,614.70
2023-04-28T03:50:10.800Z,590.05
2023-04-28T03:52:38.930Z,563.30
2023-04-28T03:55:07.332Z,562.20
2023-04-28T03:57:36.652Z,540.00
2023-04-28T04:00:05.331Z,531.58
2023-04-28T04:02:33.235Z,503.10
2023-04-28T04:05:01.320Z,501.45
2023-04-28T04:07:29.366Z,530.53
2023-04-28T04:09:57.200Z,561.78
2023-04-28T04:12:24.977Z,567.75
2023-04-28T04:14:54.171Z,625.85
2023-04-28T04:17:22.006Z,694.13
2023-04-28T04:19:49.783Z,673.35
2023-04-28T04:22:17.538Z,658.25
2023-04-28T04:24:45.316Z,638.33
2023-04-28T04:27:13.198Z,620.92
2023-04-28T04:29:41.123Z,579.28
2023-04-28T04:32:10.296Z,574.58
2023-04-28T04:34:38.102Z,590.15
2023-04-28T04:37:06.149Z,644.05
2023-04-28T04:39:33.942Z,655.58
2023-04-28T04:42:13.240Z,652.05
2023-04-28T04:44:44.927Z,625.88
2023-04-28T04:47:14.113Z,606.53
2023-04-28T04:49:41.882Z,590.90
2023-04-28T04:52:09.669Z,586.97
2023-04-28T04:54:37.418Z,576.42
2023-04-28T04:57:05.518Z,553.20
2023-04-28T04:59:33.403Z,540.95
2023-04-28T05:02:01.246Z,519.75
2023-04-28T05:04:30.590Z,508.45
2023-04-28T05:06:58.420Z,478.83
2023-04-28T05:09:26.255Z,511.63
2023-04-28T05:11:54.052Z,503.08
2023-04-28T05:14:21.839Z,515.60
2023-04-28T05:16:49.686Z,541.95
2023-04-28T05:19:17.676Z,545.47
2023-04-28T05:21:48.043Z,531.83
2023-04-28T05:24:16.115Z,498.33
2023-04-28T05:26:44.139Z,487.77
2023-04-28T05:29:11.933Z,610.20
2023-04-28T05:31:39.708Z,649.45
2023-04-28T05:34:07.503Z,589.58
2023-04-28T05:36:35.930Z,597.75
2023-04-28T05:39:05.196Z,593.35
2023-04-28T05:41:33.013Z,591.17
2023-04-28T05:44:00.866Z,596.42
2023-04-28T05:46:31.064Z,596.42
2023-04-28T05:48:59.314Z,605.20
2023-04-28T05:51:27.262Z,584.00
2023-04-28T05:53:55.509Z,586.38
2023-04-28T05:56:24.647Z,561.38
2023-04-28T05:58:52.577Z,590.85
2023-04-28T06:01:20.367Z,568.13
2023-04-28T06:03:48.359Z,609.90
2023-04-28T06:06:16.538Z,638.22
2023-04-28T06:08:44.546Z,655.40
2023-04-28T06:11:12.342Z,679.15
2023-04-28T06:13:41.471Z,670.08
2023-04-28T06:16:09.518Z,669.33
2023-04-28T06:18:37.356Z,651.95
2023-04-28T06:21:05.105Z,645.85
2023-04-28T06:23:32.873Z,615.58
2023-04-28T06:26:00.788Z,614.22
2023-04-28T06:28:28.738Z,596.38
2023-04-28T06:30:59.841Z,581.55
2023-04-28T06:33:27.696Z,552.55
2023-04-28T06:35:55.462Z,538.58
2023-04-28T06:38:23.453Z,530.35
2023-04-28T06:40:51.571Z,513.38
2023-04-28T06:43:19.334Z,499.92
2023-04-28T06:45:47.173Z,487.25
2023-04-28T06:48:16.313Z,471.08
2023-04-28T06:50:44.130Z,447.02
2023-04-28T06:53:12.011Z,425.35
2023-04-28T06:55:39.858Z,408.92
2023-04-28T06:58:07.610Z,373.25
2023-04-28T07:00:35.498Z,342.67
2023-04-28T07:03:03.611Z,344.58
2023-04-28T07:05:33.750Z,328.17
2023-04-28T07:08:01.539Z,312.17
2023-04-28T07:10:29.352Z,311.15
2023-04-28T07:12:57.082Z,289.08
2023-04-28T07:15:25.045Z,297.45
2023-04-28T07:17:53.152Z,277.05
2023-04-28T07:22:50.554Z,267.90
2023-04-28T07:25:18.471Z,262.45
2023-04-28T07:27:47.117Z,246.85
2023-04-28T07:30:26.531Z,228.30
2023-04-28T07:32:56.074Z,216.40
2023-04-28T07:35:24.189Z,209.73
2023-04-28T07:37:54.783Z,206.23
2023-04-28T07:40:23.325Z,220.27
2023-04-28T07:42:51.719Z,260.45
2023-04-28T07:45:19.575Z,297.33
2023-04-28T07:47:47.390Z,346.05
2023-04-28T07:50:16.200Z,344.15
2023-04-28T07:52:44.519Z,369.30
2023-04-28T07:55:13.668Z,374.15
2023-04-28T07:57:42.392Z,372.55
2023-04-28T08:00:11.881Z,389.85
2023-04-28T08:02:40.051Z,436.50
2023-04-28T08:05:09.652Z,483.80
2023-04-28T08:07:38.456Z,481.98
2023-04-28T08:10:06.742Z,499.65
2023-04-28T08:12:35.943Z,511.35
2023-04-28T08:15:03.983Z,489.15
2023-04-28T08:17:32.130Z,504.67
2023-04-28T08:20:00.269Z,514.28
2023-04-28T08:22:28.078Z,525.25
2023-04-28T08:24:55.904Z,528.50
2023-04-28T08:27:25.756Z,526.30
2023-04-28T08:29:55.067Z,504.67
2023-04-28T08:32:22.980Z,488.08
2023-04-28T08:34:50.740Z,477.42
2023-04-28T08:37:19.064Z,493.25
2023-04-28T08:39:47.623Z,485.90
2023-04-28T08:42:15.901Z,466.00
2023-04-28T08:44:43.680Z,458.92
2023-04-28T08:47:14.274Z,707.03
2023-04-28T08:49:43.482Z,1053.80
2023-04-28T08:52:13.155Z,714.42
2023-04-28T08:54:41.730Z,596.47
2023-04-28T08:57:11.131Z,560.55
2023-04-28T08:59:41.045Z,506.92
2023-04-28T09:02:09.570Z,494.17
2023-04-28T09:04:39.403Z,473.20
2023-04-28T09:07:12.802Z,465.13
2023-04-28T09:09:41.816Z,433.63
2023-04-28T09:12:09.633Z,418.40
2023-04-28T09:14:39.171Z,391.80
2023-04-28T09:17:11.932Z,365.73
2023-04-28T09:19:43.050Z,337.17
2023-04-28T09:22:25.515Z,343.55
2023-04-28T09:24:55.321Z,299.67
2023-04-28T09:27:28.456Z,287.48
2023-04-28T09:29:56.512Z,269.00
2023-04-28T09:32:25.893Z,266.48
2023-04-28T09:34:57.278Z,368.83
2023-04-28T09:37:27.210Z,351.88
2023-04-28T09:39:56.123Z,395.95
2023-04-28T09:42:33.799Z,408.63
2023-04-28T09:45:03.242Z,380.92
2023-04-28T09:47:32.776Z,378.90
2023-04-28T09:50:05.099Z,362.17
2023-04-28T09:52:34.671Z,328.80
2023-04-28T09:55:03.970Z,314.70
2023-04-28T09:57:33.455Z,297.58
2023-04-28T10:00:02.552Z,255.43
2023-04-28T10:05:03.423Z,232.63
2023-04-28T10:07:35.750Z,230.90
2023-04-28T10:10:04.524Z,214.70
2023-04-28T10:12:34.736Z,210.25
2023-04-28T10:15:03.331Z,175.52
2023-04-28T10:17:31.415Z,188.20
2023-04-28T10:19:59.195Z,168.57
2023-04-28T10:22:48.193Z,164.65
2023-04-28T10:25:27.175Z,148.38
2023-04-28T10:27:55.304Z,141.52
2023-04-28T10:30:27.988Z,134.82
2023-04-28T10:33:14.269Z,113.50
2023-04-28T10:35:43.810Z,108.63
2023-04-28T10:38:14.433Z,113.03
2023-04-28T10:40:44.515Z,100.55
2023-04-28T10:43:13.931Z,97.88
2023-04-28T10:46:01.165Z,92.30
2023-04-28T10:48:47.021Z,88.97
2023-04-28T10:51:33.102Z,82.03
2023-04-28T10:54:19.328Z,74.38
2023-04-28T10:57:05.267Z,76.40
2023-04-28T10:59:34.523Z,58.53
2023-04-28T11:02:26.300Z,56.25
2023-04-28T11:05:13.329Z,55.60
2023-04-28T11:07:41.202Z,55.10
2023-04-28T11:10:09.538Z,51.88
2023-04-28T11:12:37.368Z,47.45
2023-04-28T11:15:14.942Z,40.97
2023-04-28T11:20:14.258Z,32.38
2023-04-28T11:22:42.854Z,38.45
2023-04-28T11:25:10.771Z,36.25
2023-04-28T11:27:38.578Z,35.33
2023-04-28T11:30:22.915Z,32.10
2023-04-28T11:32:51.628Z,29.33
2023-04-28T11:35:19.425Z,23.17
2023-04-28T11:37:47.199Z,24.88
2023-04-28T11:40:16.073Z,22.80
2023-04-28T11:42:49.142Z,89.85
2023-04-28T11:45:17.268Z,199.07
2023-04-28T11:47:46.433Z,197.32
2023-04-28T11:50:15.737Z,196.18
2023-04-28T11:52:52.495Z,181.98
2023-04-28T11:55:21.732Z,169.38
2023-04-28T11:57:49.514Z,171.88
2023-04-28T12:00:21.790Z,152.93
2023-04-28T12:02:51.783Z,147.43
2023-04-28T12:05:22.069Z,136.55
2023-04-28T12:07:49.936Z,129.52
2023-04-28T12:10:18.753Z,184.15
2023-04-28T12:12:51.621Z,237.75
2023-04-28T12:15:21.951Z,253.02
2023-04-28T12:17:52.000Z,269.17
2023-04-28T12:20:36.510Z,263.90
2023-04-28T12:23:04.668Z,236.23
2023-04-28T12:25:34.099Z,230.18
2023-04-28T12:28:03.234Z,218.25
2023-04-28T12:30:32.728Z,221.40
2023-04-28T12:33:02.046Z,197.93
2023-04-28T12:35:30.562Z,199.70
2023-04-28T12:37:59.125Z,182.93
2023-04-28T12:40:27.430Z,181.95
2023-04-28T12:42:55.302Z,172.80
2023-04-28T12:45:23.102Z,164.48
2023-04-28T12:47:51.004Z,160.18
2023-04-28T12:50:20.368Z,158.98
